sensor_id;sensor_type;location;lat;lon;timestamp;pressure;altitude;pressure_sealevel;temperature;humidity
46223;BME280;31943;51.410;7.564;2023-12-22T00:00:40;98693.59;;;6.19;69.67
46223;BME280;31943;51.410;7.564;2023-12-22T00:03:06;98693.59;;;6.16;69.50
46223;BME280;31943;51.410;7.564;2023-12-22T00:05:33;98697.91;;;6.21;68.66
46223;BME280;31943;51.410;7.564;2023-12-22T00:07:59;98683.22;;;6.06;68.05
46223;BME280;31943;51.410;7.564;2023-12-22T00:10:24;98713.41;;;6.07;67.64
46223;BME280;31943;51.410;7.564;2023-12-22T00:12:50;98706.53;;;6.06;68.06
46223;BME280;31943;51.410;7.564;2023-12-22T00:15:16;98716.00;;;6.03;67.99
46223;BME280;31943;51.410;7.564;2023-12-22T00:17:42;98720.28;;;5.99;68.37
46223;BME280;31943;51.410;7.564;2023-12-22T00:20:08;98709.88;;;5.93;68.31
46223;BME280;31943;51.410;7.564;2023-12-22T00:22:36;98706.44;;;5.92;68.29
46223;BME280;31943;51.410;7.564;2023-12-22T00:25:02;98715.94;;;5.92;68.40
46223;BME280;31943;51.410;7.564;2023-12-22T00:27:28;98726.28;;;5.89;67.93
46223;BME280;31943;51.410;7.564;2023-12-22T00:29:55;98726.22;;;5.81;68.03
46223;BME280;31943;51.410;7.564;2023-12-22T00:32:20;98725.38;;;5.81;68.60
46223;BME280;31943;51.410;7.564;2023-12-22T00:34:46;98720.19;;;5.81;68.24
46223;BME280;31943;51.410;7.564;2023-12-22T00:37:11;98720.16;;;5.76;68.45
46223;BME280;31943;51.410;7.564;2023-12-22T00:39:38;98736.53;;;5.72;68.37
46223;BME280;31943;51.410;7.564;2023-12-22T00:42:04;98752.09;;;5.77;68.47
46223;BME280;31943;51.410;7.564;2023-12-22T00:44:31;98757.28;;;5.80;68.32
46223;BME280;31943;51.410;7.564;2023-12-22T00:46:57;98748.66;;;5.81;68.37
46223;BME280;31943;51.410;7.564;2023-12-22T00:49:23;98749.53;;;5.83;68.58
46223;BME280;31943;51.410;7.564;2023-12-22T00:51:48;98765.91;;;5.79;69.08
46223;BME280;31943;51.410;7.564;2023-12-22T00:54:14;98781.44;;;5.82;69.37
46223;BME280;31943;51.410;7.564;2023-12-22T00:56:41;98772.81;;;5.81;69.39
46223;BME280;31943;51.410;7.564;2023-12-22T00:59:07;98769.34;;;5.76;69.69
46223;BME280;31943;51.410;7.564;2023-12-22T01:01:33;98755.53;;;5.75;69.88
46223;BME280;31943;51.410;7.564;2023-12-22T01:03:58;98761.59;;;5.74;70.08
46223;BME280;31943;51.410;7.564;2023-12-22T01:06:25;98765.03;;;5.77;69.86
46223;BME280;31943;51.410;7.564;2023-12-22T01:08:51;98759.03;;;5.82;70.15
46223;BME280;31943;51.410;7.564;2023-12-22T01:11:17;98759.03;;;5.84;69.96
46223;BME280;31943;51.410;7.564;2023-12-22T01:13:45;98766.75;;;5.74;70.58
46223;BME280;31943;51.410;7.564;2023-12-22T01:16:13;98772.78;;;5.73;70.58
46223;BME280;31943;51.410;7.564;2023-12-22T01:18:39;98784.03;;;5.77;70.56
46223;BME280;31943;51.410;7.564;2023-12-22T01:21:06;98769.38;;;5.81;70.60
46223;BME280;31943;51.410;7.564;2023-12-22T01:23:32;98772.81;;;5.77;70.59
46223;BME280;31943;51.410;7.564;2023-12-22T01:25:57;98776.28;;;5.79;70.69
46223;BME280;31943;51.410;7.564;2023-12-22T01:28:24;98783.16;;;5.78;70.48
46223;BME280;31943;51.410;7.564;2023-12-22T01:30:51;98790.09;;;5.84;70.24
46223;BME280;31943;51.410;7.564;2023-12-22T01:33:18;98791.81;;;5.83;70.42
46223;BME280;31943;51.410;7.564;2023-12-22T01:35:43;98791.84;;;5.86;70.70
46223;BME280;31943;51.410;7.564;2023-12-22T01:38:10;98790.16;;;5.93;69.98
46223;BME280;31943;51.410;7.564;2023-12-22T01:40:35;98787.56;;;5.93;70.37
46223;BME280;31943;51.410;7.564;2023-12-22T01:43:01;98789.28;;;5.92;70.19
46223;BME280;31943;51.410;7.564;2023-12-22T01:45:27;98791.88;;;5.91;70.42
46223;BME280;31943;51.410;7.564;2023-12-22T01:47:54;98799.66;;;5.94;70.36
46223;BME280;31943;51.410;7.564;2023-12-22T01:50:20;98804.00;;;5.95;71.01
46223;BME280;31943;51.410;7.564;2023-12-22T01:52:47;98799.66;;;5.94;71.00
46223;BME280;31943;51.410;7.564;2023-12-22T01:55:13;98805.75;;;6.01;71.11
46223;BME280;31943;51.410;7.564;2023-12-22T01:57:41;98811.81;;;6.04;70.78
46223;BME280;31943;51.410;7.564;2023-12-22T02:00:07;98799.72;;;6.00;71.21
46223;BME280;31943;51.410;7.564;2023-12-22T02:02:33;98809.25;;;6.06;70.81
46223;BME280;31943;51.410;7.564;2023-12-22T02:05:01;98815.28;;;6.08;70.25
46223;BME280;31943;51.410;7.564;2023-12-22T02:07:27;98817.94;;;6.16;69.96
46223;BME280;31943;51.410;7.564;2023-12-22T02:09:54;98823.09;;;6.16;70.02
46223;BME280;31943;51.410;7.564;2023-12-22T02:12:20;98819.66;;;6.18;69.83
46223;BME280;31943;51.410;7.564;2023-12-22T02:14:47;98814.44;;;6.15;70.11
46223;BME280;31943;51.410;7.564;2023-12-22T02:17:20;98800.63;;;6.11;69.16
46223;BME280;31943;51.410;7.564;2023-12-22T02:19:50;98805.81;;;6.10;68.41
46223;BME280;31943;51.410;7.564;2023-12-22T02:22:21;98810.13;;;6.08;67.77
46223;BME280;31943;51.410;7.564;2023-12-22T02:24:48;98808.34;;;6.01;67.67
46223;BME280;31943;51.410;7.564;2023-12-22T02:27:22;98814.38;;;6.01;67.13
46223;BME280;31943;51.410;7.564;2023-12-22T02:30:05;98810.91;;;5.98;66.17
46223;BME280;31943;51.410;7.564;2023-12-22T02:32:35;98806.53;;;5.89;66.16
46223;BME280;31943;51.410;7.564;2023-12-22T02:35:04;98806.47;;;5.81;66.47
46223;BME280;31943;51.410;7.564;2023-12-22T02:37:32;98821.97;;;5.78;66.46
46223;BME280;31943;51.410;7.564;2023-12-22T02:40:01;98845.28;;;5.75;66.66
46223;BME280;31943;51.410;7.564;2023-12-22T02:42:28;98825.41;;;5.72;66.67
46223;BME280;31943;51.410;7.564;2023-12-22T02:44:54;98835.69;;;5.66;66.95
46223;BME280;31943;51.410;7.564;2023-12-22T02:47:19;98821.00;;;5.59;67.35
46223;BME280;31943;51.410;7.564;2023-12-22T02:49:45;98833.09;;;5.62;67.79
46223;BME280;31943;51.410;7.564;2023-12-22T02:52:11;98822.75;;;5.59;68.00
46223;BME280;31943;51.410;7.564;2023-12-22T02:54:39;98820.16;;;5.59;67.91
46223;BME280;31943;51.410;7.564;2023-12-22T02:57:06;98813.25;;;5.61;68.23
46223;BME280;31943;51.410;7.564;2023-12-22T02:59:32;98804.59;;;5.57;68.22
46223;BME280;31943;51.410;7.564;2023-12-22T03:01:58;98822.69;;;5.55;68.40
46223;BME280;31943;51.410;7.564;2023-12-22T03:04:24;98823.53;;;5.51;68.45
46223;BME280;31943;51.410;7.564;2023-12-22T03:06:50;98825.25;;;5.52;69.23
46223;BME280;31943;51.410;7.564;2023-12-22T03:09:15;98849.44;;;5.56;68.48
46223;BME280;31943;51.410;7.564;2023-12-22T03:11:42;98839.09;;;5.56;68.89
46223;BME280;31943;51.410;7.564;2023-12-22T03:14:34;98848.63;;;5.62;69.12
46223;BME280;31943;51.410;7.564;2023-12-22T03:16:59;98837.38;;;5.58;68.77
46223;BME280;31943;51.410;7.564;2023-12-22T03:19:25;98833.09;;;5.62;68.87
46223;BME280;31943;51.410;7.564;2023-12-22T03:21:51;98828.81;;;5.65;68.21
46223;BME280;31943;51.410;7.564;2023-12-22T03:24:16;98840.00;;;5.61;68.37
46223;BME280;31943;51.410;7.564;2023-12-22T03:26:42;98839.13;;;5.59;68.88
46223;BME280;31943;51.410;7.564;2023-12-22T03:29:07;98842.59;;;5.61;68.90
46223;BME280;31943;51.410;7.564;2023-12-22T03:31:35;98859.81;;;5.62;69.00
46223;BME280;31943;51.410;7.564;2023-12-22T03:34:01;98864.19;;;5.68;69.03
46223;BME280;31943;51.410;7.564;2023-12-22T03:36:27;98845.25;;;5.70;68.71
46223;BME280;31943;51.410;7.564;2023-12-22T03:38:52;98848.66;;;5.68;69.19
46223;BME280;31943;51.410;7.564;2023-12-22T03:41:18;98840.94;;;5.72;68.75
46223;BME280;31943;51.410;7.564;2023-12-22T03:43:44;98848.72;;;5.75;68.47
46223;BME280;31943;51.410;7.564;2023-12-22T03:46:10;98848.72;;;5.75;68.58
46223;BME280;31943;51.410;7.564;2023-12-22T03:48:37;98838.41;;;5.83;67.72
46223;BME280;31943;51.410;7.564;2023-12-22T03:51:03;98847.84;;;5.78;68.26
46223;BME280;31943;51.410;7.564;2023-12-22T03:53:28;98833.19;;;5.77;68.69
46223;BME280;31943;51.410;7.564;2023-12-22T03:55:54;98847.03;;;5.79;69.00
46223;BME280;31943;51.410;7.564;2023-12-22T03:58:20;98838.38;;;5.75;69.54
46223;BME280;31943;51.410;7.564;2023-12-22T04:00:46;98824.56;;;5.75;70.36
46223;BME280;31943;51.410;7.564;2023-12-22T04:03:12;98828.88;;;5.73;70.63
46223;BME280;31943;51.410;7.564;2023-12-22T04:05:39;98823.69;;;5.73;70.93
46223;BME280;31943;51.410;7.564;2023-12-22T04:08:05;98834.91;;;5.73;71.13
46223;BME280;31943;51.410;7.564;2023-12-22T04:10:31;98836.63;;;5.71;71.56
46223;BME280;31943;51.410;7.564;2023-12-22T04:12:57;98860.75;;;5.69;71.78
46223;BME280;31943;51.410;7.564;2023-12-22T04:15:22;98845.16;;;5.60;71.67
46223;BME280;31943;51.410;7.564;2023-12-22T04:17:48;98839.13;;;5.59;72.20
46223;BME280;31943;51.410;7.564;2023-12-22T04:20:14;98851.19;;;5.60;72.32
46223;BME280;31943;51.410;7.564;2023-12-22T04:22:41;98878.84;;;5.63;71.71
46223;BME280;31943;51.410;7.564;2023-12-22T04:25:07;98852.88;;;5.53;71.61
46223;BME280;31943;51.410;7.564;2023-12-22T04:27:33;98888.03;;;5.30;72.89
46223;BME280;31943;51.410;7.564;2023-12-22T04:29:58;98893.94;;;5.17;73.83
46223;BME280;31943;51.410;7.564;2023-12-22T04:32:24;98904.13;;;5.03;74.09
46223;BME280;31943;51.410;7.564;2023-12-22T04:34:49;98880.81;;;4.97;73.74
46223;BME280;31943;51.410;7.564;2023-12-22T04:37:15;98847.91;;;4.82;73.87
46223;BME280;31943;51.410;7.564;2023-12-22T04:39:42;98866.75;;;4.71;74.10
46223;BME280;31943;51.410;7.564;2023-12-22T04:42:08;98883.91;;;4.65;74.80
46223;BME280;31943;51.410;7.564;2023-12-22T04:44:34;98890.78;;;4.66;74.67
46223;BME280;31943;51.410;7.564;2023-12-22T04:46:59;98887.31;;;4.61;74.61
46223;BME280;31943;51.410;7.564;2023-12-22T04:49:25;98873.44;;;4.55;74.66
46223;BME280;31943;51.410;7.564;2023-12-22T04:51:50;98874.38;;;4.62;74.71
46223;BME280;31943;51.410;7.564;2023-12-22T04:54:16;98878.78;;;4.69;74.31
46223;BME280;31943;51.410;7.564;2023-12-22T04:56:43;98874.50;;;4.71;74.62
46223;BME280;31943;51.410;7.564;2023-12-22T04:59:08;98881.38;;;4.71;74.37
46223;BME280;31943;51.410;7.564;2023-12-22T05:01:34;98891.78;;;4.75;74.32
46223;BME280;31943;51.410;7.564;2023-12-22T05:04:00;98898.69;;;4.78;74.51
46223;BME280;31943;51.410;7.564;2023-12-22T05:06:26;98914.28;;;4.86;74.01
46223;BME280;31943;51.410;7.564;2023-12-22T05:08:52;98903.88;;;4.80;74.20
46223;BME280;31943;51.410;7.564;2023-12-22T05:11:17;98909.13;;;4.84;74.34
46223;BME280;31943;51.410;7.564;2023-12-22T05:13:47;98911.69;;;4.83;74.69
46223;BME280;31943;51.410;7.564;2023-12-22T05:16:12;98907.38;;;4.83;74.93
46223;BME280;31943;51.410;7.564;2023-12-22T05:18:39;98892.72;;;4.84;74.49
46223;BME280;31943;51.410;7.564;2023-12-22T05:21:04;98898.69;;;4.78;75.12
46223;BME280;31943;51.410;7.564;2023-12-22T05:23:30;98907.31;;;4.79;75.25
46223;BME280;31943;51.410;7.564;2023-12-22T05:25:55;98905.59;;;4.79;75.34
46223;BME280;31943;51.410;7.564;2023-12-22T05:28:21;98909.94;;;4.83;75.40
46223;BME280;31943;51.410;7.564;2023-12-22T05:30:48;98912.50;;;4.79;75.16
46223;BME280;31943;51.410;7.564;2023-12-22T05:33:13;98924.63;;;4.84;75.16
46223;BME280;31943;51.410;7.564;2023-12-22T05:35:39;98913.41;;;4.84;75.02
46223;BME280;31943;51.410;7.564;2023-12-22T05:38:05;98923.75;;;4.85;75.45
46223;BME280;31943;51.410;7.564;2023-12-22T05:40:31;98918.63;;;4.88;75.45
46223;BME280;31943;51.410;7.564;2023-12-22T05:42:57;98906.59;;;4.90;75.26
46223;BME280;31943;51.410;7.564;2023-12-22T05:45:22;98915.22;;;4.92;75.45
46223;BME280;31943;51.410;7.564;2023-12-22T05:47:49;98917.84;;;4.95;75.10
46223;BME280;31943;51.410;7.564;2023-12-22T05:50:15;98912.66;;;4.95;75.16
46223;BME280;31943;51.410;7.564;2023-12-22T05:52:40;98921.31;;;4.99;75.45
46223;BME280;31943;51.410;7.564;2023-12-22T05:55:06;98930.03;;;5.07;74.56
46223;BME280;31943;51.410;7.564;2023-12-22T05:57:32;98927.44;;;5.04;74.46
46223;BME280;31943;51.410;7.564;2023-12-22T05:59:58;98946.44;;;5.09;74.38
46223;BME280;31943;51.410;7.564;2023-12-22T06:02:25;98941.25;;;5.08;74.76
46223;BME280;31943;51.410;7.564;2023-12-22T06:04:52;98944.72;;;5.10;74.50
46223;BME280;31943;51.410;7.564;2023-12-22T06:07:18;98950.81;;;5.15;74.24
46223;BME280;31943;51.410;7.564;2023-12-22T06:09:43;98941.34;;;5.17;74.20
46223;BME280;31943;51.410;7.564;2023-12-22T06:12:10;98950.88;;;5.21;73.96
46223;BME280;31943;51.410;7.564;2023-12-22T06:14:35;98943.06;;;5.17;74.30
46223;BME280;31943;51.410;7.564;2023-12-22T06:17:01;98955.16;;;5.19;74.35
46223;BME280;31943;51.410;7.564;2023-12-22T06:19:26;98956.94;;;5.22;74.58
46223;BME280;31943;51.410;7.564;2023-12-22T06:21:54;98979.38;;;5.26;74.59
46223;BME280;31943;51.410;7.564;2023-12-22T06:24:20;98981.09;;;5.27;74.58
46223;BME280;31943;51.410;7.564;2023-12-22T06:26:45;98966.47;;;5.27;74.51
46223;BME280;31943;51.410;7.564;2023-12-22T06:29:11;98969.94;;;5.29;74.56
46223;BME280;31943;51.410;7.564;2023-12-22T06:31:37;98963.03;;;5.28;74.42
46223;BME280;31943;51.410;7.564;2023-12-22T06:34:03;98969.00;;;5.24;74.76
46223;BME280;31943;51.410;7.564;2023-12-22T06:36:28;98962.97;;;5.22;74.97
46223;BME280;31943;51.410;7.564;2023-12-22T06:38:56;98978.50;;;5.24;75.22
46223;BME280;31943;51.410;7.564;2023-12-22T06:41:22;98969.06;;;5.27;75.13
46223;BME280;31943;51.410;7.564;2023-12-22T06:43:48;98964.78;;;5.29;75.29
46223;BME280;31943;51.410;7.564;2023-12-22T06:46:17;98952.69;;;5.30;75.50
46223;BME280;31943;51.410;7.564;2023-12-22T06:48:44;98957.00;;;5.31;75.53
46223;BME280;31943;51.410;7.564;2023-12-22T06:51:17;98952.72;;;5.34;75.12
46223;BME280;31943;51.410;7.564;2023-12-22T06:53:42;98955.31;;;5.31;75.29
46223;BME280;31943;51.410;7.564;2023-12-22T06:56:16;98962.19;;;5.32;75.07
46223;BME280;31943;51.410;7.564;2023-12-22T06:58:42;98960.50;;;5.34;74.89
46223;BME280;31943;51.410;7.564;2023-12-22T07:01:08;98951.00;;;5.35;75.29
46223;BME280;31943;51.410;7.564;2023-12-22T07:03:33;98950.16;;;5.36;74.90
46223;BME280;31943;51.410;7.564;2023-12-22T07:05:59;98949.34;;;5.40;75.42
46223;BME280;31943;51.410;7.564;2023-12-22T07:08:25;98951.94;;;5.40;75.37
46223;BME280;31943;51.410;7.564;2023-12-22T07:10:50;98931.25;;;5.42;75.54
46223;BME280;31943;51.410;7.564;2023-12-22T07:13:17;98935.59;;;5.46;75.33
46223;BME280;31943;51.410;7.564;2023-12-22T07:15:43;98930.41;;;5.44;75.32
46223;BME280;31943;51.410;7.564;2023-12-22T07:18:09;98937.31;;;5.47;75.64
46223;BME280;31943;51.410;7.564;2023-12-22T07:20:36;98933.91;;;5.48;75.36
46223;BME280;31943;51.410;7.564;2023-12-22T07:23:01;98926.97;;;5.45;75.35
46223;BME280;31943;51.410;7.564;2023-12-22T07:25:27;98911.50;;;5.50;75.68
46223;BME280;31943;51.410;7.564;2023-12-22T07:27:52;98906.34;;;5.54;75.65
46223;BME280;31943;51.410;7.564;2023-12-22T07:30:19;98909.84;;;5.60;75.50
46223;BME280;31943;51.410;7.564;2023-12-22T07:32:45;98920.22;;;5.61;75.51
46223;BME280;31943;51.410;7.564;2023-12-22T07:35:11;98919.38;;;5.65;75.69
46223;BME280;31943;51.410;7.564;2023-12-22T07:37:36;98924.59;;;5.67;75.72
46223;BME280;31943;51.410;7.564;2023-12-22T07:40:03;98925.47;;;5.70;75.62
46223;BME280;31943;51.410;7.564;2023-12-22T07:42:28;98915.13;;;5.69;75.44
46223;BME280;31943;51.410;7.564;2023-12-22T07:44:54;98916.84;;;5.71;75.60
46223;BME280;31943;51.410;7.564;2023-12-22T07:47:21;98929.81;;;5.76;75.55
46223;BME280;31943;51.410;7.564;2023-12-22T07:49:46;98929.88;;;5.81;75.76
46223;BME280;31943;51.410;7.564;2023-12-22T07:52:12;98940.22;;;5.81;75.36
46223;BME280;31943;51.410;7.564;2023-12-22T07:54:38;98928.13;;;5.80;75.45
46223;BME280;31943;51.410;7.564;2023-12-22T07:57:04;98914.34;;;5.84;75.31
46223;BME280;31943;51.410;7.564;2023-12-22T07:59:30;98908.31;;;5.85;75.00
46223;BME280;31943;51.410;7.564;2023-12-22T08:01:56;98914.38;;;5.90;75.29
46223;BME280;31943;51.410;7.564;2023-12-22T08:04:23;98910.16;;;5.95;75.05
46223;BME280;31943;51.410;7.564;2023-12-22T08:06:50;98901.53;;;5.96;74.84
46223;BME280;31943;51.410;7.564;2023-12-22T08:09:15;98906.72;;;5.96;74.81
46223;BME280;31943;51.410;7.564;2023-12-22T08:11:41;98907.59;;;6.00;74.82
46223;BME280;31943;51.410;7.564;2023-12-22T08:14:07;98909.34;;;6.05;74.82
46223;BME280;31943;51.410;7.564;2023-12-22T08:16:32;98909.38;;;6.08;74.30
46223;BME280;31943;51.410;7.564;2023-12-22T08:18:58;98910.22;;;6.07;74.54
46223;BME280;31943;51.410;7.564;2023-12-22T08:21:25;98888.66;;;6.11;74.56
46223;BME280;31943;51.410;7.564;2023-12-22T08:23:51;98895.63;;;6.14;74.56
46223;BME280;31943;51.410;7.564;2023-12-22T08:26:16;98899.97;;;6.20;74.55
46223;BME280;31943;51.410;7.564;2023-12-22T08:28:42;98898.22;;;6.23;74.37
46223;BME280;31943;51.410;7.564;2023-12-22T08:31:07;98906.06;;;6.28;74.61
46223;BME280;31943;51.410;7.564;2023-12-22T08:33:33;98903.50;;;6.34;74.56
46223;BME280;31943;51.410;7.564;2023-12-22T08:35:59;98891.44;;;6.42;74.58
46223;BME280;31943;51.410;7.564;2023-12-22T08:38:27;98888.03;;;6.52;74.47
46223;BME280;31943;51.410;7.564;2023-12-22T08:40:54;98891.50;;;6.54;74.48
46223;BME280;31943;51.410;7.564;2023-12-22T08:43:19;98876.84;;;6.61;74.26
46223;BME280;31943;51.410;7.564;2023-12-22T08:45:45;98893.28;;;6.68;74.08
46223;BME280;31943;51.410;7.564;2023-12-22T08:48:11;98908.00;;;6.70;74.09
46223;BME280;31943;51.410;7.564;2023-12-22T08:50:37;98900.22;;;6.78;74.12
46223;BME280;31943;51.410;7.564;2023-12-22T08:53:02;98936.50;;;6.78;73.97
46223;BME280;31943;51.410;7.564;2023-12-22T08:55:30;98910.63;;;6.87;74.10
46223;BME280;31943;51.410;7.564;2023-12-22T08:57:56;98918.47;;;6.98;73.68
46223;BME280;31943;51.410;7.564;2023-12-22T09:00:22;98921.06;;;7.03;73.74
46223;BME280;31943;51.410;7.564;2023-12-22T09:02:47;98925.38;;;7.05;74.10
46223;BME280;31943;51.410;7.564;2023-12-22T09:05:13;98937.50;;;7.08;74.10
46223;BME280;31943;51.410;7.564;2023-12-22T09:07:39;98929.75;;;7.14;74.21
46223;BME280;31943;51.410;7.564;2023-12-22T09:10:05;98924.56;;;7.16;74.20
46223;BME280;31943;51.410;7.564;2023-12-22T09:12:35;98925.44;;;7.18;73.66
46223;BME280;31943;51.410;7.564;2023-12-22T09:15:00;98918.50;;;7.23;73.98
46223;BME280;31943;51.410;7.564;2023-12-22T09:17:26;98915.06;;;7.27;73.72
46223;BME280;31943;51.410;7.564;2023-12-22T09:19:52;98905.56;;;7.32;73.69
46223;BME280;31943;51.410;7.564;2023-12-22T09:22:32;98920.28;;;7.39;73.69
46223;BME280;31943;51.410;7.564;2023-12-22T09:24:58;98915.94;;;7.38;73.23
46223;BME280;31943;51.410;7.564;2023-12-22T09:27:26;98922.00;;;7.40;73.74
46223;BME280;31943;51.410;7.564;2023-12-22T09:29:56;98898.66;;;7.43;73.40
46223;BME280;31943;51.410;7.564;2023-12-22T09:32:22;98878.78;;;7.47;73.39
46223;BME280;31943;51.410;7.564;2023-12-22T09:34:48;98888.25;;;7.52;73.25
46223;BME280;31943;51.410;7.564;2023-12-22T09:37:14;98907.31;;;7.51;73.22
46223;BME280;31943;51.410;7.564;2023-12-22T09:39:39;98908.16;;;7.52;73.36
46223;BME280;31943;51.410;7.564;2023-12-22T09:42:05;98904.72;;;7.53;73.68
46223;BME280;31943;51.410;7.564;2023-12-22T09:44:32;98911.63;;;7.52;73.68
46223;BME280;31943;51.410;7.564;2023-12-22T09:47:14;98910.75;;;7.50;73.63
46223;BME280;31943;51.410;7.564;2023-12-22T09:49:42;98916.84;;;7.51;72.95
46223;BME280;31943;51.410;7.564;2023-12-22T09:52:08;98918.56;;;7.47;72.57
46223;BME280;31943;51.410;7.564;2023-12-22T09:54:36;98908.16;;;7.46;72.91
46223;BME280;31943;51.410;7.564;2023-12-22T09:57:02;98895.19;;;7.35;72.01
46223;BME280;31943;51.410;7.564;2023-12-22T09:59:28;98883.91;;;7.33;72.43
46223;BME280;31943;51.410;7.564;2023-12-22T10:01:55;98890.00;;;7.32;73.21
46223;BME280;31943;51.410;7.564;2023-12-22T10:04:23;98879.59;;;7.26;73.61
46223;BME280;31943;51.410;7.564;2023-12-22T10:06:50;98885.66;;;7.23;74.06
46223;BME280;31943;51.410;7.564;2023-12-22T10:09:16;98889.97;;;7.18;74.40
46223;BME280;31943;51.410;7.564;2023-12-22T10:11:43;98898.63;;;7.14;74.58
46223;BME280;31943;51.410;7.564;2023-12-22T10:14:10;98890.81;;;7.12;74.80
46223;BME280;31943;51.410;7.564;2023-12-22T10:16:36;98887.34;;;7.15;75.12
46223;BME280;31943;51.410;7.564;2023-12-22T10:19:03;98892.56;;;7.13;75.37
46223;BME280;31943;51.410;7.564;2023-12-22T10:21:30;98884.78;;;7.13;75.59
46223;BME280;31943;51.410;7.564;2023-12-22T10:23:56;98872.69;;;7.16;75.82
46223;BME280;31943;51.410;7.564;2023-12-22T10:26:22;98871.78;;;7.10;75.87
46223;BME280;31943;51.410;7.564;2023-12-22T10:28:48;98870.06;;;7.11;76.22
46223;BME280;31943;51.410;7.564;2023-12-22T10:31:40;98885.66;;;7.14;75.69
46223;BME280;31943;51.410;7.564;2023-12-22T10:34:06;98884.78;;;7.12;75.97
46223;BME280;31943;51.410;7.564;2023-12-22T10:36:36;98866.59;;;7.15;76.48
46223;BME280;31943;51.410;7.564;2023-12-22T10:39:31;98831.19;;;7.16;76.54
46223;BME280;31943;51.410;7.564;2023-12-22T10:41:59;98835.47;;;7.07;76.53
46223;BME280;31943;51.410;7.564;2023-12-22T10:44:46;98833.75;;;7.06;76.78
46223;BME280;31943;51.410;7.564;2023-12-22T10:50:22;98845.81;;;6.95;77.27
46223;BME280;31943;51.410;7.564;2023-12-22T11:06:31;98833.72;;;6.97;78.21
